Weather at Calgary International Airport

Public forecast

Using degrees Celsius for public forecast. Weather courtesy of forecast.io.

Current aviation weather report (METAR) for Calgary International Airport

Retrieved 2021/04/20 23:00 UTC (29 minutes ago):

CYYC 202300Z 19009KT 40SM SCT280 11/M08 A3017 RMK CI3 SLP258 DENSITY ALT 3700FT

Aviation forecast (TAF) for Calgary International Airport

Retrieved 2021/04/20 21:39 UTC (2 hours ago):

TAF CYYC 202038Z 2021/2118 18010KT P6SM FEW070 SCT280 BECMG 2105/2107 25006KT FM211000 27008KT P6SM SKC RMK NXT FCST BY 210000Z